createdAt,value
2018-07-07T00:02:03.156Z,9.93
2018-07-07T00:04:31.427Z,11.90
2018-07-07T00:06:59.810Z,9.53
2018-07-07T00:09:29.186Z,10.57
2018-07-07T00:11:57.437Z,10.97
2018-07-07T00:14:25.651Z,10.73
2018-07-07T00:16:54.366Z,10.30
2018-07-07T00:19:22.277Z,10.10
2018-07-07T00:21:50.390Z,9.90
2018-07-07T00:24:18.513Z,10.13
2018-07-07T00:26:46.633Z,9.80
2018-07-07T00:29:15.779Z,9.07
2018-07-07T00:31:44.889Z,10.40
2018-07-07T00:34:13.090Z,9.53
2018-07-07T00:36:41.204Z,9.80
2018-07-07T00:39:10.385Z,9.20
2018-07-07T00:41:38.546Z,9.40
2018-07-07T00:44:06.668Z,8.93
2018-07-07T00:46:34.811Z,9.30
2018-07-07T00:49:03.016Z,8.80
2018-07-07T00:51:31.102Z,9.10
2018-07-07T00:53:59.244Z,9.23
2018-07-07T00:56:27.353Z,9.40
2018-07-07T00:58:55.522Z,10.20
2018-07-07T01:01:23.660Z,9.40
2018-07-07T01:03:51.812Z,10.57
2018-07-07T01:06:27.797Z,8.57
2018-07-07T01:08:55.910Z,8.80
2018-07-07T01:11:24.050Z,9.03
2018-07-07T01:13:52.562Z,8.67
2018-07-07T01:16:20.681Z,10.00
2018-07-07T01:18:48.805Z,10.40
2018-07-07T01:21:16.955Z,9.37
2018-07-07T01:23:46.034Z,10.43
2018-07-07T01:26:14.217Z,9.43
2018-07-07T01:28:42.397Z,9.50
2018-07-07T01:31:10.529Z,11.20
2018-07-07T01:33:38.643Z,9.03
2018-07-07T01:36:07.160Z,9.80
2018-07-07T01:38:35.276Z,9.00
2018-07-07T01:41:03.192Z,9.30
2018-07-07T01:43:31.333Z,10.10
2018-07-07T01:45:59.508Z,9.23
2018-07-07T01:48:27.798Z,11.30
2018-07-07T01:50:55.982Z,9.93
2018-07-07T01:55:12.313Z,9.30
2018-07-07T01:57:40.541Z,10.00
2018-07-07T02:00:09.122Z,9.20
2018-07-07T02:02:37.246Z,10.00
2018-07-07T02:05:05.395Z,10.00
2018-07-07T02:07:33.541Z,9.50
2018-07-07T02:10:08.102Z,8.60
2018-07-07T02:12:36.267Z,10.10
2018-07-07T02:15:04.394Z,9.80
2018-07-07T02:17:32.566Z,9.23
2018-07-07T02:20:00.710Z,9.33
2018-07-07T02:22:28.838Z,10.20
2018-07-07T02:24:56.961Z,9.30
2018-07-07T02:27:25.094Z,9.87
2018-07-07T02:29:54.125Z,11.00
2018-07-07T02:32:22.260Z,10.30
2018-07-07T02:34:50.371Z,10.23
2018-07-07T02:37:18.543Z,9.87
2018-07-07T02:39:50.500Z,9.00
2018-07-07T02:42:18.741Z,8.80
2018-07-07T02:45:10.319Z,8.20
2018-07-07T02:47:39.903Z,9.40
2018-07-07T02:50:08.054Z,8.37
2018-07-07T02:52:36.207Z,8.90
2018-07-07T02:55:04.358Z,9.60
2018-07-07T02:57:32.275Z,10.10
2018-07-07T03:00:00.375Z,9.20
2018-07-07T03:02:28.527Z,9.73
2018-07-07T03:04:56.641Z,8.33
2018-07-07T03:07:24.775Z,9.93
2018-07-07T03:09:52.910Z,8.77
2018-07-07T03:12:21.039Z,8.70
2018-07-07T03:14:49.177Z,9.93
2018-07-07T03:17:17.290Z,9.80
2018-07-07T03:19:45.467Z,9.70
2018-07-07T03:22:13.626Z,10.20
2018-07-07T03:24:41.795Z,8.80
2018-07-07T03:27:09.944Z,8.93
2018-07-07T03:29:38.069Z,10.20
2018-07-07T03:32:06.323Z,9.67
2018-07-07T03:34:34.442Z,9.37
2018-07-07T03:37:02.612Z,9.67
2018-07-07T03:39:30.745Z,10.30
2018-07-07T03:41:58.921Z,10.73
2018-07-07T03:44:27.066Z,10.03
2018-07-07T03:46:55.186Z,9.80
2018-07-07T03:49:23.352Z,9.60
2018-07-07T03:51:51.466Z,9.67
2018-07-07T03:54:19.596Z,9.83
2018-07-07T03:56:48.350Z,10.00
2018-07-07T03:59:16.536Z,9.17
2018-07-07T04:01:44.689Z,10.50
2018-07-07T04:04:12.832Z,9.37
2018-07-07T04:06:41.010Z,9.97
2018-07-07T04:09:09.174Z,9.00
2018-07-07T04:11:37.322Z,9.33
2018-07-07T04:14:05.444Z,9.77
2018-07-07T04:16:33.602Z,8.83
2018-07-07T04:19:03.271Z,8.87
2018-07-07T04:21:31.402Z,9.60
2018-07-07T04:23:59.546Z,9.53
2018-07-07T04:26:27.686Z,8.60
2018-07-07T04:28:55.818Z,10.33
2018-07-07T04:31:23.966Z,9.10
2018-07-07T04:33:52.153Z,9.13
2018-07-07T04:36:20.295Z,10.13
2018-07-07T04:38:48.486Z,8.13
2018-07-07T04:41:16.618Z,10.13
2018-07-07T04:43:44.799Z,9.47
2018-07-07T04:46:12.950Z,9.70
2018-07-07T04:48:41.166Z,9.63
2018-07-07T04:51:09.299Z,8.57
2018-07-07T04:53:37.451Z,8.93
2018-07-07T04:56:05.722Z,9.90
2018-07-07T04:58:33.858Z,9.57
2018-07-07T05:01:01.968Z,9.30
2018-07-07T05:03:30.131Z,9.40
2018-07-07T05:05:58.311Z,10.07
2018-07-07T05:08:26.467Z,9.33
2018-07-07T05:10:54.588Z,9.17
2018-07-07T05:13:22.719Z,8.97
2018-07-07T05:15:50.889Z,8.50
2018-07-07T05:18:19.006Z,8.13
2018-07-07T05:20:47.142Z,8.03
2018-07-07T05:23:15.265Z,8.37
2018-07-07T05:25:43.407Z,8.33
2018-07-07T05:28:11.552Z,7.40
2018-07-07T05:30:39.671Z,8.20
2018-07-07T05:33:07.804Z,7.80
2018-07-07T05:35:35.918Z,8.83
2018-07-07T05:38:04.088Z,8.00
2018-07-07T05:40:32.267Z,7.83
2018-07-07T05:43:00.388Z,7.83
2018-07-07T05:45:28.623Z,8.50
2018-07-07T05:47:56.821Z,8.13
2018-07-07T05:50:25.010Z,8.17
2018-07-07T05:52:53.114Z,8.70
2018-07-07T05:55:21.279Z,7.83
2018-07-07T06:00:23.569Z,8.60
2018-07-07T06:05:37.884Z,7.90
2018-07-07T06:08:06.160Z,8.77
2018-07-07T06:10:40.554Z,8.23
2018-07-07T06:13:08.715Z,7.60
2018-07-07T06:15:36.837Z,8.70
2018-07-07T06:18:06.599Z,8.47
2018-07-07T06:20:34.859Z,8.27
2018-07-07T06:23:03.036Z,8.17
2018-07-07T06:25:31.187Z,8.33
2018-07-07T06:27:59.443Z,8.10
2018-07-07T06:30:27.752Z,8.00
2018-07-07T06:32:55.891Z,9.30
2018-07-07T06:35:24.058Z,9.83
2018-07-07T06:37:52.295Z,11.17
2018-07-07T08:14:36.744Z,12.63
2018-07-07T08:17:05.395Z,14.20
2018-07-07T08:19:33.847Z,12.80
2018-07-07T08:22:02.008Z,12.93
2018-07-07T08:24:30.203Z,12.47
2018-07-07T08:26:58.381Z,11.80
2018-07-07T08:29:26.518Z,11.60
2018-07-07T08:31:56.290Z,12.23
2018-07-07T08:34:24.735Z,11.27
2018-07-07T08:36:52.889Z,11.37
2018-07-07T08:39:21.062Z,11.27
2018-07-07T08:41:49.285Z,11.87
2018-07-07T08:44:17.387Z,11.50
2018-07-07T08:46:55.082Z,11.10
2018-07-07T08:49:24.249Z,10.03
2018-07-07T08:51:52.466Z,10.17
2018-07-07T08:54:20.665Z,10.13
2018-07-07T08:56:49.562Z,10.07
2018-07-07T08:59:17.712Z,9.93
2018-07-07T09:01:45.939Z,9.60
2018-07-07T09:04:14.118Z,9.50
2018-07-07T09:06:42.446Z,13.37
2018-07-07T09:09:11.030Z,9.80
2018-07-07T09:11:39.247Z,9.97
2018-07-07T09:14:09.271Z,9.00
2018-07-07T09:16:37.543Z,9.87
2018-07-07T09:19:05.841Z,9.30
2018-07-07T09:21:45.725Z,8.60
2018-07-07T09:24:13.845Z,9.10
2018-07-07T09:26:42.003Z,9.80
2018-07-07T09:29:10.216Z,9.60
2018-07-07T09:31:38.643Z,10.83
2018-07-07T09:34:06.802Z,9.90
2018-07-07T09:36:35.049Z,10.53
2018-07-07T09:39:03.458Z,10.47
2018-07-07T09:41:31.638Z,10.97
2018-07-07T09:44:14.177Z,10.53
2018-07-07T09:47:10.663Z,12.73
2018-07-07T09:49:38.909Z,10.80
2018-07-07T09:52:07.090Z,9.93
2018-07-07T09:54:35.238Z,12.40
2018-07-07T09:57:03.408Z,10.30
2018-07-07T09:59:31.875Z,12.50
2018-07-07T10:02:27.506Z,10.70
2018-07-07T10:04:55.910Z,11.53
2018-07-07T10:07:24.099Z,12.17
2018-07-07T10:09:52.224Z,13.00
2018-07-07T10:12:20.385Z,12.10
2018-07-07T10:14:48.580Z,12.50
2018-07-07T10:17:16.702Z,12.07
2018-07-07T10:19:44.876Z,10.47
2018-07-07T10:22:13.104Z,11.40
2018-07-07T10:24:41.333Z,11.87
2018-07-07T10:27:09.509Z,11.60
2018-07-07T10:29:37.689Z,11.73
2018-07-07T10:32:05.882Z,12.10
2018-07-07T10:34:34.109Z,12.10
2018-07-07T10:37:02.718Z,12.37
2018-07-07T10:39:30.654Z,12.90
2018-07-07T10:41:58.827Z,11.17
2018-07-07T10:44:27.002Z,12.77
2018-07-07T10:46:55.173Z,13.70
2018-07-07T10:49:23.348Z,11.53
2018-07-07T10:51:51.550Z,11.60
2018-07-07T10:54:19.770Z,10.70
2018-07-07T10:56:47.979Z,11.03
2018-07-07T10:59:16.143Z,10.93
2018-07-07T11:01:44.334Z,15.40
2018-07-07T11:04:15.173Z,16.70
2018-07-07T11:07:08.717Z,13.80
2018-07-07T11:09:36.706Z,14.70
2018-07-07T11:12:09.225Z,12.40
2018-07-07T11:14:39.195Z,12.17
2018-07-07T11:17:08.384Z,12.40
2018-07-07T11:22:18.478Z,11.73
2018-07-07T11:24:46.703Z,14.27
2018-07-07T11:27:15.876Z,11.47
2018-07-07T11:29:44.129Z,11.90
2018-07-07T11:32:12.588Z,10.90
2018-07-07T11:34:40.875Z,14.67
2018-07-07T11:37:10.205Z,14.80
2018-07-07T11:39:38.393Z,11.30
2018-07-07T11:42:06.662Z,11.13
2018-07-07T11:44:34.927Z,10.10
2018-07-07T11:47:03.152Z,11.07
2018-07-07T11:49:31.355Z,9.47
2018-07-07T11:52:14.717Z,10.70
2018-07-07T11:54:42.986Z,11.07
2018-07-07T11:57:16.848Z,11.50
2018-07-07T11:59:51.555Z,16.77
2018-07-07T12:02:20.500Z,11.07
2018-07-07T12:05:45.306Z,10.37
2018-07-07T12:08:13.992Z,16.47
2018-07-07T12:10:54.386Z,11.90
2018-07-07T12:13:30.377Z,11.17
2018-07-07T12:18:36.335Z,18.80
2018-07-07T12:21:11.096Z,14.50
2018-07-07T12:23:39.284Z,15.80
2018-07-07T12:26:11.036Z,11.60
2018-07-07T12:28:46.982Z,10.67
2018-07-07T12:31:15.235Z,10.83
2018-07-07T12:33:44.346Z,14.90
2018-07-07T12:36:12.535Z,10.90
2018-07-07T12:38:40.699Z,10.73
2018-07-07T14:56:54.069Z,11.07
2018-07-07T15:10:55.501Z,10.67
2018-07-07T15:13:29.764Z,10.40
2018-07-07T15:16:11.239Z,9.53
2018-07-07T15:18:40.059Z,10.20
2018-07-07T15:21:08.236Z,9.67
2018-07-07T15:23:37.250Z,10.50
2018-07-07T15:26:23.431Z,9.43
2018-07-07T15:29:11.917Z,10.90
2018-07-07T15:31:52.134Z,11.00
2018-07-07T15:34:20.326Z,10.57
2018-07-07T15:39:53.539Z,10.60
2018-07-07T15:42:22.754Z,13.70
2018-07-07T15:48:17.039Z,10.43
2018-07-07T15:50:45.305Z,12.20
2018-07-07T15:53:13.554Z,9.73
2018-07-07T15:55:41.722Z,13.07
2018-07-07T15:58:22.031Z,12.80
2018-07-07T16:09:21.478Z,9.40
2018-07-07T16:11:49.631Z,10.57
2018-07-07T16:14:17.878Z,10.40
2018-07-07T16:16:47.148Z,11.03
2018-07-07T16:19:15.415Z,10.33
2018-07-07T16:21:43.648Z,10.10
2018-07-07T16:27:06.278Z,9.30
2018-07-07T16:30:13.165Z,10.00
2018-07-07T16:33:46.609Z,9.47
2018-07-07T16:36:15.804Z,10.33
2018-07-07T16:38:44.855Z,11.23
2018-07-07T16:41:13.099Z,14.80
2018-07-07T16:43:47.159Z,9.13
2018-07-07T16:46:15.487Z,10.07
2018-07-07T16:48:44.297Z,9.60
2018-07-07T16:51:12.483Z,12.87
2018-07-07T16:56:41.077Z,9.23
2018-07-07T16:59:09.287Z,11.67
2018-07-07T17:01:37.468Z,10.60
2018-07-07T17:04:11.893Z,11.00
2018-07-07T17:06:41.497Z,10.80
2018-07-07T17:09:19.602Z,10.37
2018-07-07T17:11:50.765Z,11.27
2018-07-07T17:14:39.595Z,10.30
2018-07-07T17:20:10.958Z,10.00
2018-07-07T17:22:39.365Z,9.60
2018-07-07T17:25:07.637Z,13.20
2018-07-07T17:27:36.291Z,13.97
2018-07-07T17:30:04.484Z,15.70
2018-07-07T17:32:32.778Z,11.30
2018-07-07T17:35:01.828Z,15.67
2018-07-07T17:37:30.109Z,10.60
2018-07-07T17:39:58.275Z,10.73
2018-07-07T17:42:26.496Z,9.63
2018-07-07T17:44:57.810Z,10.73
2018-07-07T17:47:38.549Z,11.10
2018-07-07T17:50:06.787Z,10.27
2018-07-07T17:52:35.945Z,10.90
2018-07-07T17:55:05.763Z,10.43
2018-07-07T17:57:34.398Z,11.50
2018-07-07T18:00:02.619Z,10.73
2018-07-07T18:02:30.866Z,11.10
2018-07-07T18:04:59.438Z,10.90
2018-07-07T18:07:27.671Z,11.00
2018-07-07T18:09:55.887Z,10.77
2018-07-07T18:12:24.133Z,11.87
2018-07-07T18:14:52.395Z,10.87
2018-07-07T18:17:20.657Z,12.47
2018-07-07T18:19:48.828Z,11.97
2018-07-07T18:22:16.994Z,11.73
2018-07-07T18:24:45.162Z,10.63
2018-07-07T18:27:13.352Z,12.03
2018-07-07T18:29:41.593Z,11.63
2018-07-07T18:32:09.874Z,11.93
2018-07-07T18:34:38.047Z,12.17
2018-07-07T18:37:06.146Z,11.30
2018-07-07T18:39:34.330Z,12.27
2018-07-07T18:42:02.528Z,12.53
2018-07-07T18:44:30.684Z,12.97
2018-07-07T18:46:58.819Z,13.17
2018-07-07T18:49:27.003Z,13.70
2018-07-07T18:51:55.263Z,11.53
2018-07-07T18:54:23.447Z,12.50
2018-07-07T18:56:51.660Z,11.43
2018-07-07T18:59:19.722Z,12.07
2018-07-07T19:01:47.925Z,13.87
2018-07-07T19:04:16.032Z,12.30
2018-07-07T19:06:44.313Z,11.97
2018-07-07T19:09:12.614Z,12.37
2018-07-07T19:11:40.855Z,12.27
2018-07-07T19:14:08.994Z,11.20
2018-07-07T19:16:37.144Z,12.17
2018-07-07T19:19:05.385Z,13.17
2018-07-07T19:23:45.595Z,12.10
2018-07-07T19:26:19.508Z,13.13
2018-07-07T19:28:47.663Z,13.30
2018-07-07T19:31:15.934Z,12.50
2018-07-07T19:33:50.275Z,13.27
2018-07-07T19:36:23.760Z,13.37
2018-07-07T19:38:52.368Z,13.60
2018-07-07T19:41:20.504Z,14.23
2018-07-07T19:43:48.655Z,14.53
2018-07-07T19:46:17.864Z,14.93
2018-07-07T19:48:45.986Z,14.50
2018-07-07T19:51:14.228Z,15.50
2018-07-07T19:53:42.480Z,15.90
2018-07-07T19:56:10.759Z,15.93
2018-07-07T19:58:39.009Z,15.40
2018-07-07T20:01:07.210Z,16.10
2018-07-07T20:03:35.366Z,16.43
2018-07-07T20:06:03.687Z,16.07
2018-07-07T20:08:31.813Z,15.57
2018-07-07T20:10:59.972Z,14.00
2018-07-07T20:13:28.180Z,15.20
2018-07-07T20:16:12.978Z,14.43
2018-07-07T20:19:09.009Z,14.40
2018-07-07T20:21:50.250Z,14.90
2018-07-07T20:24:20.742Z,14.40
2018-07-07T20:26:54.294Z,14.00
2018-07-07T20:29:22.468Z,14.47
2018-07-07T20:31:51.725Z,15.03
2018-07-07T20:34:23.066Z,14.90
2018-07-07T20:36:51.889Z,17.07
2018-07-07T20:39:20.171Z,13.90
2018-07-07T20:41:48.838Z,15.70
2018-07-07T20:44:17.447Z,14.00
2018-07-07T20:46:46.356Z,15.00
2018-07-07T20:49:15.103Z,15.80
2018-07-07T20:51:43.369Z,16.47
2018-07-07T20:54:11.565Z,16.23
2018-07-07T20:56:39.766Z,17.10
2018-07-07T20:59:07.918Z,16.47
2018-07-07T21:01:36.196Z,16.10
2018-07-07T21:04:04.315Z,14.70
2018-07-07T21:06:33.284Z,16.50
2018-07-07T21:09:02.054Z,15.50
2018-07-07T21:11:30.179Z,16.80
2018-07-07T21:13:58.402Z,16.80
2018-07-07T21:16:27.176Z,16.77
2018-07-07T21:18:55.401Z,16.50
2018-07-07T21:21:23.957Z,16.73
2018-07-07T21:23:52.210Z,15.23
2018-07-07T21:26:20.375Z,16.30
2018-07-07T21:28:48.545Z,16.40
2018-07-07T21:31:17.614Z,16.20
2018-07-07T21:33:45.774Z,16.83
2018-07-07T21:36:15.040Z,15.67
2018-07-07T21:38:48.110Z,15.60
2018-07-07T21:41:16.280Z,15.90
2018-07-07T21:43:44.466Z,17.50
2018-07-07T21:46:12.858Z,16.10
2018-07-07T21:48:41.459Z,16.17
2018-07-07T21:51:10.425Z,15.87
2018-07-07T21:53:38.652Z,17.70
2018-07-07T21:56:06.742Z,18.90
2018-07-07T21:58:34.872Z,19.43
2018-07-07T22:01:15.380Z,19.57
2018-07-07T22:03:48.837Z,21.33
2018-07-07T22:06:22.247Z,21.53
2018-07-07T22:08:50.425Z,21.40
2018-07-07T22:11:18.574Z,21.27
2018-07-07T22:13:46.728Z,22.03
2018-07-07T22:16:14.902Z,21.03
2018-07-07T22:18:43.175Z,20.47
2018-07-07T22:21:22.539Z,21.17
2018-07-07T22:23:50.962Z,20.63
2018-07-07T22:26:20.073Z,19.63
2018-07-07T22:28:48.261Z,20.30
2018-07-07T22:31:16.455Z,20.77
2018-07-07T22:33:44.664Z,20.07
2018-07-07T22:36:47.257Z,19.60
2018-07-07T22:39:15.468Z,18.50
2018-07-07T22:41:55.722Z,19.50
2018-07-07T22:44:23.922Z,19.30
2018-07-07T22:46:52.634Z,21.10
2018-07-07T22:49:20.803Z,20.23
2018-07-07T22:51:48.967Z,20.20
2018-07-07T22:54:17.168Z,20.30
2018-07-07T22:56:45.381Z,21.60
2018-07-07T22:59:13.930Z,20.30
2018-07-07T23:01:42.142Z,19.60
2018-07-07T23:04:10.287Z,21.30
2018-07-07T23:06:39.916Z,19.10
2018-07-07T23:09:09.565Z,19.47
2018-07-07T23:11:37.739Z,18.60
2018-07-07T23:14:05.911Z,19.30
2018-07-07T23:16:34.088Z,19.50
2018-07-07T23:19:03.245Z,19.63
2018-07-07T23:21:32.203Z,18.73
2018-07-07T23:24:00.366Z,19.57
2018-07-07T23:26:28.859Z,19.73
2018-07-07T23:28:57.161Z,20.67
2018-07-07T23:31:25.307Z,19.20
2018-07-07T23:33:53.462Z,21.23
2018-07-07T23:36:21.640Z,18.97
2018-07-07T23:38:49.830Z,21.10
2018-07-07T23:41:18.058Z,20.23
2018-07-07T23:43:46.256Z,20.37
2018-07-07T23:46:14.406Z,17.70
2018-07-07T23:48:42.581Z,20.70
2018-07-07T23:51:11.002Z,21.23
2018-07-07T23:53:39.251Z,19.73
2018-07-07T23:56:07.736Z,21.57
2018-07-07T23:58:35.918Z,19.10
